createdAt,value
2019-02-03T00:00:34.207Z,1.20
2019-02-03T00:01:42.087Z,1.20
2019-02-03T00:02:46.522Z,1.20
2019-02-03T00:03:51.252Z,1.20
2019-02-03T00:04:55.741Z,1.20
2019-02-03T00:06:00.167Z,1.10
2019-02-03T00:07:04.686Z,1.10
2019-02-03T00:08:09.139Z,1.10
2019-02-03T00:09:17.681Z,1.10
2019-02-03T00:10:22.165Z,1.10
2019-02-03T00:11:26.566Z,1.10
2019-02-03T00:12:30.996Z,1.10
2019-02-03T00:13:35.497Z,1.10
2019-02-03T00:14:39.972Z,1.10
2019-02-03T00:15:44.421Z,1.10
2019-02-03T00:16:48.915Z,1.10
2019-02-03T00:17:53.504Z,1.20
2019-02-03T00:18:58.314Z,1.20
2019-02-03T00:20:02.745Z,1.10
2019-02-03T00:21:07.100Z,1.10
2019-02-03T00:22:11.532Z,1.20
2019-02-03T00:23:15.899Z,1.20
2019-02-03T00:24:20.411Z,1.20
2019-02-03T00:25:24.782Z,1.20
2019-02-03T00:26:29.239Z,1.20
2019-02-03T00:27:33.794Z,1.20
2019-02-03T00:28:38.140Z,1.20
2019-02-03T00:29:42.594Z,1.20
2019-02-03T00:30:47.111Z,1.20
2019-02-03T00:31:51.634Z,1.30
2019-02-03T00:32:56.199Z,1.30
2019-02-03T00:34:00.583Z,1.30
2019-02-03T00:35:05.771Z,1.20
2019-02-03T00:36:10.425Z,1.20
2019-02-03T00:37:17.416Z,1.20
2019-02-03T00:38:24.400Z,1.20
2019-02-03T00:39:27.292Z,1.30
2019-02-03T00:40:31.979Z,1.30
2019-02-03T00:41:36.448Z,1.30
2019-02-03T00:42:40.978Z,1.30
2019-02-03T00:43:45.388Z,1.30
2019-02-03T00:44:49.873Z,1.30
2019-02-03T00:45:54.497Z,1.30
2019-02-03T00:46:58.926Z,1.30
2019-02-03T00:48:03.356Z,1.30
2019-02-03T00:49:07.865Z,1.20
2019-02-03T00:50:12.645Z,1.20
2019-02-03T00:51:17.063Z,1.20
2019-02-03T00:52:21.536Z,1.30
2019-02-03T00:53:26.037Z,1.30
2019-02-03T00:54:30.484Z,1.20
2019-02-03T00:55:35.009Z,1.20
2019-02-03T00:56:39.634Z,1.20
2019-02-03T00:57:44.015Z,1.20
2019-02-03T00:58:48.834Z,1.20
2019-02-03T00:59:53.699Z,1.20
2019-02-03T01:00:58.176Z,1.20
2019-02-03T01:02:02.623Z,1.10
2019-02-03T01:03:07.106Z,1.10
2019-02-03T01:04:11.572Z,1.10
2019-02-03T01:05:17.025Z,1.10
2019-02-03T01:06:23.762Z,1.10
2019-02-03T01:07:29.401Z,1.10
2019-02-03T01:08:34.001Z,1.10
2019-02-03T01:09:38.474Z,1.10
2019-02-03T01:10:42.889Z,1.10
2019-02-03T01:11:47.304Z,1.10
2019-02-03T01:12:51.733Z,1.10
2019-02-03T01:13:56.182Z,1.10
2019-02-03T01:15:00.657Z,1.10
2019-02-03T01:16:05.210Z,1.10
2019-02-03T01:17:09.727Z,1.20
2019-02-03T01:18:14.449Z,1.20
2019-02-03T01:19:20.526Z,1.10
2019-02-03T01:20:25.102Z,1.10
2019-02-03T01:21:29.486Z,1.10
2019-02-03T01:22:33.882Z,1.10
2019-02-03T01:23:38.487Z,1.10
2019-02-03T01:24:42.915Z,1.10
2019-02-03T01:25:47.322Z,1.10
2019-02-03T01:26:51.721Z,1.10
2019-02-03T01:27:56.297Z,1.10
2019-02-03T01:29:00.888Z,1.10
2019-02-03T01:30:06.863Z,1.10
2019-02-03T01:31:11.301Z,1.10
2019-02-03T01:32:16.123Z,1.10
2019-02-03T01:33:20.623Z,1.10
2019-02-03T01:34:25.041Z,1.10
2019-02-03T01:35:29.491Z,1.10
2019-02-03T01:36:34.044Z,1.10
2019-02-03T01:37:41.572Z,1.10
2019-02-03T01:38:46.462Z,1.10
2019-02-03T01:39:50.868Z,1.10
2019-02-03T01:40:55.372Z,1.10
2019-02-03T01:41:59.825Z,1.10
2019-02-03T01:43:04.355Z,1.10
2019-02-03T01:44:08.804Z,1.10
2019-02-03T01:45:17.924Z,1.00
2019-02-03T01:46:22.422Z,1.10
2019-02-03T01:47:26.927Z,1.10
2019-02-03T01:48:31.470Z,1.10
2019-02-03T01:49:35.959Z,1.10
2019-02-03T01:50:40.812Z,1.10
2019-02-03T01:51:45.230Z,1.10
2019-02-03T01:52:49.758Z,1.10
2019-02-03T01:53:54.773Z,1.10
2019-02-03T01:54:59.365Z,1.10
2019-02-03T01:56:03.765Z,1.10
2019-02-03T01:57:08.268Z,1.10
2019-02-03T01:58:12.734Z,1.10
2019-02-03T01:59:17.327Z,1.10
2019-02-03T02:00:23.973Z,1.10
2019-02-03T02:01:28.404Z,1.10
2019-02-03T02:02:32.901Z,1.10
2019-02-03T02:03:37.532Z,1.10
2019-02-03T02:04:41.893Z,1.10
2019-02-03T02:05:46.285Z,1.10
2019-02-03T02:06:53.013Z,1.10
2019-02-03T02:07:56.866Z,1.10
2019-02-03T02:09:01.474Z,1.10
2019-02-03T02:10:06.428Z,1.10
2019-02-03T02:11:10.994Z,1.10
2019-02-03T02:12:15.458Z,1.10
2019-02-03T02:13:19.886Z,1.00
2019-02-03T02:14:24.374Z,1.00
2019-02-03T02:15:28.874Z,1.00
2019-02-03T02:16:33.318Z,0.90
2019-02-03T02:17:37.840Z,0.90
2019-02-03T02:18:42.725Z,0.90
2019-02-03T02:19:47.403Z,0.80
2019-02-03T02:20:52.033Z,0.70
2019-02-03T02:21:56.576Z,0.60
2019-02-03T02:23:01.160Z,0.60
2019-02-03T02:24:05.694Z,0.60
2019-02-03T02:25:10.612Z,0.50
2019-02-03T02:26:15.152Z,0.40
2019-02-03T02:27:19.555Z,0.40
2019-02-03T02:28:24.244Z,0.30
2019-02-03T02:29:28.689Z,0.30
2019-02-03T02:30:33.089Z,0.30
2019-02-03T02:31:37.679Z,0.30
2019-02-03T02:32:42.111Z,0.30
2019-02-03T02:33:46.586Z,0.30
2019-02-03T02:34:51.137Z,0.20
2019-02-03T02:35:55.809Z,0.30
2019-02-03T02:37:00.625Z,0.30
2019-02-03T02:38:07.149Z,0.30
2019-02-03T02:39:11.732Z,0.20
2019-02-03T02:40:26.893Z,0.30
2019-02-03T02:41:31.697Z,0.20
2019-02-03T02:42:36.184Z,0.20
2019-02-03T02:43:40.588Z,0.20
2019-02-03T02:44:45.159Z,0.10
2019-02-03T02:45:49.722Z,0.20
2019-02-03T02:46:54.154Z,0.10
2019-02-03T02:47:58.926Z,0.20
2019-02-03T02:49:03.494Z,0.20
2019-02-03T02:50:10.540Z,0.30
2019-02-03T02:51:15.053Z,0.20
2019-02-03T02:52:19.545Z,0.30
2019-02-03T02:53:23.989Z,0.20
2019-02-03T02:54:28.507Z,0.20
2019-02-03T02:55:33.001Z,0.20
2019-02-03T02:56:37.668Z,0.30
2019-02-03T02:57:44.811Z,0.30
2019-02-03T02:58:49.466Z,0.30
2019-02-03T02:59:54.012Z,0.20
2019-02-03T03:00:59.185Z,0.20
2019-02-03T03:02:03.864Z,0.20
2019-02-03T03:03:08.306Z,0.20
2019-02-03T03:04:15.079Z,0.20
2019-02-03T03:05:19.615Z,0.10
2019-02-03T03:06:24.047Z,0.10
2019-02-03T03:07:28.603Z,0.10
2019-02-03T03:08:33.204Z,0.10
2019-02-03T03:09:37.668Z,0.10
2019-02-03T03:10:42.198Z,0.10
2019-02-03T03:11:46.622Z,0.10
2019-02-03T03:12:51.033Z,0.20
2019-02-03T03:13:55.603Z,0.20
2019-02-03T03:15:00.341Z,0.20
2019-02-03T03:16:05.209Z,0.20
2019-02-03T03:17:09.626Z,0.20
2019-02-03T03:18:14.175Z,0.20
2019-02-03T03:19:18.678Z,0.20
2019-02-03T03:20:23.387Z,0.20
2019-02-03T03:21:28.248Z,0.20
2019-02-03T03:22:32.658Z,0.20
2019-02-03T03:23:37.101Z,0.20
2019-02-03T03:24:41.701Z,0.20
2019-02-03T03:25:46.458Z,0.10
2019-02-03T03:26:51.037Z,0.20
2019-02-03T03:27:55.491Z,0.20
2019-02-03T03:29:00.005Z,0.20
2019-02-03T03:30:06.170Z,0.20
2019-02-03T03:31:10.997Z,0.20
2019-02-03T03:32:15.508Z,0.20
2019-02-03T03:33:19.991Z,0.10
2019-02-03T03:34:24.502Z,0.10
2019-02-03T03:35:28.887Z,0.10
2019-02-03T03:36:33.433Z,0.10
2019-02-03T03:37:37.863Z,0.00
2019-02-03T03:38:42.385Z,0.00
2019-02-03T03:39:47.189Z,0.00
2019-02-03T03:40:51.868Z,0.00
2019-02-03T03:41:56.460Z,0.00
2019-02-03T03:43:00.971Z,-0.10
2019-02-03T03:44:05.513Z,0.00
2019-02-03T03:45:10.271Z,-0.10
2019-02-03T03:46:14.901Z,-0.20
2019-02-03T03:47:19.436Z,-0.20
2019-02-03T03:48:23.841Z,-0.20
2019-02-03T03:49:28.286Z,-0.20
2019-02-03T03:50:32.839Z,-0.20
2019-02-03T03:51:37.305Z,-0.30
2019-02-03T03:52:41.728Z,-0.40
2019-02-03T03:53:48.935Z,-0.40
2019-02-03T03:54:53.359Z,-0.50
2019-02-03T03:55:57.861Z,-0.50
2019-02-03T03:57:02.484Z,-0.60
2019-02-03T03:58:07.071Z,-0.70
2019-02-03T03:59:11.770Z,-0.80
2019-02-03T04:00:21.377Z,-0.80
2019-02-03T04:01:26.163Z,-0.90
2019-02-03T04:02:30.560Z,-0.90
2019-02-03T04:03:34.995Z,-1.00
2019-02-03T04:04:39.459Z,-1.00
2019-02-03T04:05:45.680Z,-1.10
2019-02-03T04:06:50.109Z,-1.10
2019-02-03T04:07:54.636Z,-1.20
2019-02-03T04:08:59.058Z,-1.20
2019-02-03T04:10:03.693Z,-1.20
2019-02-03T04:11:08.138Z,-1.10
2019-02-03T04:12:12.592Z,-1.20
2019-02-03T04:13:17.028Z,-1.20
2019-02-03T04:14:21.528Z,-1.20
2019-02-03T04:15:26.039Z,-1.20
2019-02-03T04:16:30.486Z,-1.20
2019-02-03T04:17:34.891Z,-1.30
2019-02-03T04:18:39.467Z,-1.30
2019-02-03T04:19:44.271Z,-1.30
2019-02-03T04:20:49.152Z,-1.30
2019-02-03T04:21:53.696Z,-1.30
2019-02-03T04:22:58.622Z,-1.40
2019-02-03T04:24:03.394Z,-1.40
2019-02-03T04:25:07.901Z,-1.40
2019-02-03T04:26:12.325Z,-1.30
2019-02-03T04:27:16.933Z,-1.40
2019-02-03T04:28:21.329Z,-1.30
2019-02-03T04:29:25.792Z,-1.30
2019-02-03T04:30:30.293Z,-1.30
2019-02-03T04:31:34.723Z,-1.30
2019-02-03T04:32:39.269Z,-1.30
2019-02-03T04:33:43.810Z,-1.30
2019-02-03T04:34:48.318Z,-1.30
2019-02-03T04:35:52.803Z,-1.30
2019-02-03T04:36:57.247Z,-1.30
2019-02-03T04:38:01.778Z,-1.30
2019-02-03T04:39:08.264Z,-1.40
2019-02-03T04:40:15.232Z,-1.40
2019-02-03T04:41:19.608Z,-1.40
2019-02-03T04:42:24.076Z,-1.40
2019-02-03T04:43:28.577Z,-1.40
2019-02-03T04:44:33.087Z,-1.40
2019-02-03T04:45:37.615Z,-1.40
2019-02-03T04:46:42.090Z,-1.40
2019-02-03T04:47:47.127Z,-1.40
2019-02-03T04:48:51.629Z,-1.40
2019-02-03T04:49:55.982Z,-1.30
2019-02-03T04:51:00.416Z,-1.30
2019-02-03T04:52:04.762Z,-1.30
2019-02-03T04:53:09.182Z,-1.30
2019-02-03T04:54:13.700Z,-1.30
2019-02-03T04:55:19.192Z,-1.30
2019-02-03T04:56:23.767Z,-1.20
2019-02-03T04:57:28.191Z,-1.20
2019-02-03T04:58:32.891Z,-1.20
2019-02-03T04:59:37.658Z,-1.20
2019-02-03T05:00:42.080Z,-1.20
2019-02-03T05:01:46.826Z,-1.20
2019-02-03T05:02:51.460Z,-1.10
2019-02-03T05:03:55.920Z,-1.10
2019-02-03T05:05:00.488Z,-1.00
2019-02-03T05:06:04.863Z,-1.00
2019-02-03T05:07:09.300Z,-0.90
2019-02-03T05:08:13.854Z,-0.90
2019-02-03T05:09:18.409Z,-0.80
2019-02-03T05:10:23.005Z,-0.80
2019-02-03T05:11:27.524Z,-0.70
2019-02-03T05:12:32.060Z,-0.70
2019-02-03T05:13:36.517Z,-0.60
2019-02-03T05:14:40.933Z,-0.50
2019-02-03T05:15:45.400Z,-0.50
2019-02-03T05:16:49.928Z,-0.40
2019-02-03T05:17:54.733Z,-0.30
2019-02-03T05:18:59.273Z,-0.30
2019-02-03T05:20:03.940Z,-0.20
2019-02-03T05:21:08.405Z,-0.20
2019-02-03T05:22:12.921Z,-0.10
2019-02-03T05:23:17.336Z,-0.10
2019-02-03T05:24:21.768Z,-0.10
2019-02-03T05:25:26.205Z,0.00
2019-02-03T05:26:30.670Z,0.00
2019-02-03T05:27:35.150Z,0.00
2019-02-03T05:28:39.555Z,0.00
2019-02-03T05:29:43.923Z,0.00
2019-02-03T05:30:48.416Z,0.10
2019-02-03T05:31:52.825Z,0.10
2019-02-03T05:32:57.336Z,0.10
2019-02-03T05:34:02.115Z,0.10
2019-02-03T05:35:06.857Z,0.10
2019-02-03T05:36:11.701Z,0.10
2019-02-03T05:37:16.119Z,0.10
2019-02-03T05:38:20.771Z,0.10
2019-02-03T05:39:25.717Z,0.00
2019-02-03T05:40:30.270Z,0.10
2019-02-03T05:41:35.740Z,0.10
2019-02-03T05:42:40.188Z,0.10
2019-02-03T05:43:44.640Z,0.10
2019-02-03T05:44:49.029Z,0.10
2019-02-03T05:45:53.612Z,0.10
2019-02-03T05:46:58.171Z,0.20
2019-02-03T05:48:02.965Z,0.20
2019-02-03T05:49:07.441Z,0.20
2019-02-03T05:50:13.139Z,0.20
2019-02-03T05:51:17.589Z,0.20
2019-02-03T05:52:21.976Z,0.30
2019-02-03T05:53:26.405Z,0.30
2019-02-03T05:54:34.164Z,0.30
2019-02-03T05:55:38.732Z,0.30
2019-02-03T05:56:43.521Z,0.30
2019-02-03T05:57:50.727Z,0.30
2019-02-03T05:58:55.196Z,0.30
2019-02-03T05:59:59.742Z,0.30
2019-02-03T06:01:04.164Z,0.30
2019-02-03T06:02:10.142Z,0.30
2019-02-03T06:03:14.625Z,0.30
2019-02-03T06:04:19.020Z,0.20
2019-02-03T06:05:23.527Z,0.20
2019-02-03T06:06:28.827Z,0.20
2019-02-03T06:07:33.193Z,0.20
2019-02-03T06:08:37.610Z,0.10
2019-02-03T06:09:41.986Z,0.10
2019-02-03T06:10:46.609Z,0.10
2019-02-03T06:11:54.377Z,0.10
2019-02-03T06:12:58.956Z,0.10
2019-02-03T06:14:04.202Z,0.10
2019-02-03T06:15:08.844Z,0.10
2019-02-03T06:16:16.593Z,0.00
2019-02-03T06:17:21.241Z,0.00
2019-02-03T06:18:25.944Z,0.00
2019-02-03T06:19:32.454Z,0.00
2019-02-03T06:20:37.134Z,0.00
2019-02-03T06:21:41.630Z,0.00
2019-02-03T06:22:46.568Z,0.00
2019-02-03T06:23:53.499Z,-0.10
2019-02-03T06:24:59.907Z,-0.10
2019-02-03T06:26:04.511Z,-0.10
2019-02-03T06:27:08.938Z,-0.10
2019-02-03T06:28:13.602Z,-0.10
2019-02-03T06:29:18.057Z,-0.20
2019-02-03T06:31:18.981Z,-0.10
2019-02-03T06:32:23.497Z,-0.10
2019-02-03T06:33:28.041Z,-0.10
2019-02-03T06:34:32.452Z,0.00
2019-02-03T06:35:36.873Z,0.00
2019-02-03T06:36:41.884Z,0.00
2019-02-03T06:37:46.414Z,0.00
2019-02-03T06:38:51.865Z,0.00
2019-02-03T06:39:58.976Z,0.10
2019-02-03T06:41:04.025Z,0.10
2019-02-03T06:42:08.596Z,0.10
2019-02-03T06:43:13.413Z,0.10
2019-02-03T06:44:17.793Z,0.10
2019-02-03T06:45:31.720Z,0.20
2019-02-03T06:46:45.675Z,0.20
2019-02-03T06:47:51.013Z,0.20
2019-02-03T06:48:58.010Z,0.30
2019-02-03T06:50:03.117Z,0.30
2019-02-03T06:51:12.508Z,0.30
2019-02-03T06:52:19.164Z,0.40
2019-02-03T06:53:23.807Z,0.40
2019-02-03T06:54:29.761Z,0.40
2019-02-03T06:55:34.192Z,0.50
2019-02-03T06:56:38.615Z,0.50
2019-02-03T06:57:43.252Z,0.50
2019-02-03T06:58:47.782Z,0.60
2019-02-03T06:59:54.757Z,0.50
2019-02-03T07:00:59.360Z,0.50
2019-02-03T07:02:04.039Z,0.50
2019-02-03T07:03:08.552Z,0.50
2019-02-03T07:04:14.797Z,0.60
2019-02-03T07:05:19.301Z,0.60
2019-02-03T07:06:24.047Z,0.60
2019-02-03T07:07:28.971Z,0.70
2019-02-03T07:08:33.531Z,0.70
2019-02-03T07:09:38.024Z,0.70
2019-02-03T07:10:44.757Z,0.70
2019-02-03T07:11:49.137Z,0.70
2019-02-03T07:12:53.795Z,0.70
2019-02-03T07:13:58.652Z,0.70
2019-02-03T07:15:03.119Z,0.70
2019-02-03T07:16:07.567Z,0.70
2019-02-03T07:17:12.229Z,0.60
2019-02-03T07:18:16.756Z,0.70
2019-02-03T07:19:21.184Z,0.70
2019-02-03T07:20:25.735Z,0.70
2019-02-03T07:21:30.260Z,0.80
2019-02-03T07:22:34.723Z,0.80
2019-02-03T07:23:40.429Z,0.80
2019-02-03T07:24:45.144Z,0.80
2019-02-03T07:25:49.836Z,0.80
2019-02-03T07:26:54.678Z,0.80
2019-02-03T07:27:59.040Z,0.80
2019-02-03T07:29:03.573Z,0.80
2019-02-03T07:30:10.285Z,0.80
2019-02-03T07:31:14.835Z,0.80
2019-02-03T07:32:19.286Z,0.80
2019-02-03T07:33:24.330Z,0.80
2019-02-03T07:34:28.802Z,0.80
2019-02-03T07:35:33.249Z,0.70
2019-02-03T07:36:37.762Z,0.80
2019-02-03T07:37:42.332Z,0.80
2019-02-03T07:38:46.799Z,0.80
2019-02-03T07:39:51.326Z,0.80
2019-02-03T07:40:55.870Z,0.80
2019-02-03T07:42:00.337Z,0.80
2019-02-03T07:43:04.842Z,0.90
2019-02-03T07:44:09.389Z,0.80
2019-02-03T07:45:14.414Z,0.70
2019-02-03T07:46:19.262Z,0.70
2019-02-03T07:47:23.942Z,0.70
2019-02-03T07:48:28.386Z,0.60
2019-02-03T07:49:32.911Z,0.70
2019-02-03T07:50:37.465Z,0.70
2019-02-03T07:51:41.841Z,0.70
2019-02-03T07:52:46.265Z,0.70
2019-02-03T07:53:51.051Z,0.70
2019-02-03T07:54:55.725Z,0.70
2019-02-03T07:56:00.203Z,0.70
2019-02-03T07:57:04.732Z,0.70
2019-02-03T07:58:12.180Z,0.70
2019-02-03T07:59:15.524Z,0.60
2019-02-03T08:00:20.009Z,0.50
2019-02-03T08:01:24.524Z,0.50
2019-02-03T08:02:29.051Z,0.50
2019-02-03T08:03:33.591Z,0.50
2019-02-03T08:04:38.357Z,0.50
2019-02-03T08:05:42.762Z,0.50
2019-02-03T08:06:47.288Z,0.40
2019-02-03T08:07:51.733Z,0.40
2019-02-03T08:08:56.416Z,0.50
2019-02-03T08:10:01.099Z,0.50
2019-02-03T08:11:05.455Z,0.50
2019-02-03T08:12:09.917Z,0.50
2019-02-03T08:13:14.443Z,0.50
2019-02-03T08:14:18.892Z,0.50
2019-02-03T08:15:23.573Z,0.50
2019-02-03T08:16:28.141Z,0.50
2019-02-03T08:17:32.641Z,0.50
2019-02-03T08:18:37.061Z,0.60
2019-02-03T08:19:41.602Z,0.60
2019-02-03T08:20:46.046Z,0.60
2019-02-03T08:21:50.600Z,0.60
2019-02-03T08:22:55.761Z,0.60
2019-02-03T08:24:00.281Z,0.60
2019-02-03T08:25:05.658Z,0.60
2019-02-03T08:26:10.163Z,0.70
2019-02-03T08:27:14.670Z,0.60
2019-02-03T08:28:19.274Z,0.70
2019-02-03T08:29:23.824Z,0.80
2019-02-03T08:30:28.487Z,0.80
2019-02-03T08:31:32.957Z,0.80
2019-02-03T08:32:37.346Z,0.90
2019-02-03T08:33:41.910Z,1.00
2019-02-03T08:34:46.525Z,1.00
2019-02-03T08:35:51.116Z,1.00
2019-02-03T08:36:55.648Z,1.10
2019-02-03T08:38:00.260Z,1.10
2019-02-03T08:39:07.855Z,1.10
2019-02-03T08:40:16.517Z,1.20
2019-02-03T08:41:20.902Z,1.30
2019-02-03T08:42:25.599Z,1.30
2019-02-03T08:43:30.273Z,1.30
2019-02-03T08:44:34.743Z,1.40
2019-02-03T08:45:39.273Z,1.50
2019-02-03T08:46:43.772Z,1.60
2019-02-03T08:47:48.249Z,1.70
2019-02-03T08:48:52.691Z,1.80
2019-02-03T08:49:57.193Z,2.00
2019-02-03T08:51:01.729Z,2.20
2019-02-03T08:52:07.977Z,2.30
2019-02-03T08:53:12.469Z,2.40
2019-02-03T08:54:17.037Z,2.50
2019-02-03T08:55:21.557Z,2.60
2019-02-03T08:56:26.064Z,2.70
2019-02-03T08:57:33.528Z,2.80
2019-02-03T08:58:37.992Z,2.90
2019-02-03T08:59:42.399Z,2.90
2019-02-03T09:00:46.776Z,3.00
2019-02-03T09:01:51.441Z,3.00
2019-02-03T09:02:56.413Z,3.10
2019-02-03T09:04:00.840Z,3.00
2019-02-03T09:05:06.746Z,3.20
2019-02-03T09:06:11.171Z,3.20
2019-02-03T09:07:15.601Z,3.20
2019-02-03T09:08:20.031Z,3.10
2019-02-03T09:09:24.537Z,3.10
2019-02-03T09:10:28.967Z,3.20
2019-02-03T09:11:33.427Z,3.20
2019-02-03T09:12:37.827Z,3.30
2019-02-03T09:13:42.278Z,3.30
2019-02-03T09:14:46.694Z,3.30
2019-02-03T09:15:51.969Z,3.30
2019-02-03T09:16:56.593Z,3.30
2019-02-03T09:18:01.066Z,3.40
2019-02-03T09:19:05.492Z,3.40
2019-02-03T09:20:15.709Z,3.40
2019-02-03T09:21:20.129Z,3.50
2019-02-03T09:22:24.767Z,3.40
2019-02-03T09:23:29.609Z,3.40
2019-02-03T09:24:34.082Z,3.30
2019-02-03T09:25:38.472Z,3.30
2019-02-03T09:26:42.972Z,3.40
2019-02-03T09:27:47.543Z,3.50
2019-02-03T09:28:51.981Z,3.50
2019-02-03T09:29:56.790Z,3.50
2019-02-03T09:31:01.356Z,3.50
2019-02-03T09:32:06.105Z,3.50
2019-02-03T09:33:10.618Z,3.60
2019-02-03T09:34:15.141Z,3.60
2019-02-03T09:35:19.540Z,3.60
2019-02-03T09:36:23.951Z,3.50
2019-02-03T09:37:29.666Z,3.60
2019-02-03T09:38:34.322Z,3.50
2019-02-03T09:39:38.790Z,3.50
2019-02-03T09:40:43.273Z,3.50
2019-02-03T09:41:48.086Z,3.50
2019-02-03T09:42:52.683Z,3.50
2019-02-03T09:43:57.528Z,3.40
2019-02-03T09:45:02.000Z,3.40
2019-02-03T09:46:06.859Z,3.30
2019-02-03T09:47:11.316Z,3.40
2019-02-03T09:48:15.849Z,3.40
2019-02-03T09:49:20.297Z,3.30
2019-02-03T09:50:26.389Z,3.30
2019-02-03T09:51:30.851Z,3.30
2019-02-03T09:52:35.347Z,3.30
2019-02-03T09:53:39.847Z,3.20
2019-02-03T09:54:44.342Z,3.10
2019-02-03T09:55:48.864Z,3.20
2019-02-03T09:56:53.444Z,3.30
2019-02-03T09:58:01.404Z,3.30
2019-02-03T09:59:06.123Z,3.20
2019-02-03T10:00:17.112Z,3.20
2019-02-03T10:01:21.558Z,3.20
2019-02-03T10:02:26.311Z,3.10
2019-02-03T10:03:31.055Z,3.10
2019-02-03T10:04:35.472Z,3.10
2019-02-03T10:05:40.009Z,3.00
2019-02-03T10:06:44.480Z,3.10
2019-02-03T10:07:49.004Z,3.00
2019-02-03T10:08:53.507Z,3.00
2019-02-03T10:09:58.510Z,3.10
2019-02-03T10:11:11.678Z,3.10
2019-02-03T10:12:09.683Z,3.10
2019-02-03T10:13:14.336Z,3.00
2019-02-03T10:14:18.832Z,3.10
2019-02-03T10:15:23.457Z,3.10
2019-02-03T10:16:27.996Z,3.10
2019-02-03T10:17:32.389Z,3.10
2019-02-03T10:18:36.814Z,3.10
2019-02-03T10:19:41.327Z,3.00
2019-02-03T10:20:45.780Z,3.10
2019-02-03T10:21:50.694Z,3.10
2019-02-03T10:22:55.270Z,3.10
2019-02-03T10:23:59.785Z,3.20
2019-02-03T10:25:05.304Z,3.20
2019-02-03T10:26:10.218Z,3.30
2019-02-03T10:27:14.927Z,3.40
2019-02-03T10:28:19.353Z,3.30
2019-02-03T10:29:23.881Z,3.40
2019-02-03T10:30:28.618Z,3.40
2019-02-03T10:31:33.165Z,3.40
2019-02-03T10:32:37.688Z,3.50
2019-02-03T10:33:42.055Z,3.50
2019-02-03T10:34:46.541Z,3.50
2019-02-03T10:35:50.976Z,3.50
2019-02-03T10:36:55.640Z,3.40
2019-02-03T10:38:00.316Z,3.40
2019-02-03T10:39:08.306Z,3.40
2019-02-03T10:40:16.198Z,3.40
2019-02-03T10:41:24.015Z,3.40
2019-02-03T10:42:26.902Z,3.50
2019-02-03T10:43:31.708Z,3.50
2019-02-03T10:44:36.343Z,3.50
2019-02-03T10:45:40.833Z,3.50
2019-02-03T10:46:45.240Z,3.50
2019-02-03T10:47:49.754Z,3.50
2019-02-03T10:48:54.390Z,3.60
2019-02-03T10:50:01.395Z,3.70
2019-02-03T10:51:05.559Z,3.70
2019-02-03T10:52:10.195Z,3.70
2019-02-03T10:53:14.873Z,3.70
2019-02-03T10:54:19.331Z,3.80
2019-02-03T10:55:23.830Z,3.90
2019-02-03T10:56:28.384Z,3.90
2019-02-03T10:57:32.960Z,4.00
2019-02-03T10:58:37.465Z,4.20
2019-02-03T10:59:41.996Z,4.30
2019-02-03T11:00:46.862Z,4.50
2019-02-03T11:01:51.304Z,4.60
2019-02-03T11:02:55.884Z,4.70
2019-02-03T11:04:01.955Z,4.80
2019-02-03T11:05:09.094Z,4.90
2019-02-03T11:06:13.626Z,5.10
2019-02-03T11:07:18.249Z,5.20
2019-02-03T11:08:22.688Z,5.30
2019-02-03T11:09:27.269Z,5.40
2019-02-03T11:10:31.850Z,5.50
2019-02-03T11:11:37.084Z,5.60
2019-02-03T11:12:41.644Z,5.70
2019-02-03T11:13:46.318Z,5.80
2019-02-03T11:14:51.857Z,5.90
2019-02-03T11:15:56.490Z,6.00
2019-02-03T11:17:00.932Z,6.00
2019-02-03T11:18:05.914Z,6.20
2019-02-03T11:19:10.935Z,6.30
2019-02-03T11:20:23.814Z,6.40
2019-02-03T11:21:28.631Z,6.50
2019-02-03T11:22:33.197Z,6.50
2019-02-03T11:23:37.814Z,6.50
2019-02-03T11:24:42.873Z,6.40
2019-02-03T11:25:47.265Z,6.40
2019-02-03T11:26:51.854Z,6.40
2019-02-03T11:27:59.133Z,6.40
2019-02-03T11:29:03.693Z,6.40
2019-02-03T11:30:14.879Z,6.30
2019-02-03T11:31:19.392Z,6.30
2019-02-03T11:32:24.036Z,6.20
2019-02-03T11:33:28.621Z,6.30
2019-02-03T11:34:33.120Z,6.20
2019-02-03T11:35:37.792Z,6.20
2019-02-03T11:36:42.438Z,6.30
2019-02-03T11:37:46.909Z,6.30
2019-02-03T11:38:51.554Z,6.30
2019-02-03T11:39:56.372Z,6.40
2019-02-03T11:41:00.872Z,6.40
2019-02-03T11:42:05.349Z,6.50
2019-02-03T11:43:09.848Z,6.50
2019-02-03T11:44:14.341Z,6.50
2019-02-03T11:45:22.016Z,6.60
2019-02-03T11:46:26.532Z,6.70
2019-02-03T11:47:30.948Z,6.70
2019-02-03T11:48:35.436Z,6.70
2019-02-03T11:49:39.891Z,6.70
2019-02-03T11:50:44.658Z,6.70
2019-02-03T11:51:49.143Z,6.70
2019-02-03T11:52:53.605Z,6.60
2019-02-03T11:53:58.298Z,6.60
2019-02-03T11:55:02.917Z,6.70
2019-02-03T11:56:07.517Z,6.80
2019-02-03T11:57:12.154Z,6.80
2019-02-03T11:58:16.624Z,6.80
2019-02-03T11:59:21.480Z,6.70
2019-02-03T12:00:27.484Z,6.60
2019-02-03T12:01:32.030Z,6.60
2019-02-03T12:02:41.861Z,6.50
2019-02-03T12:03:42.569Z,6.50
2019-02-03T12:04:47.062Z,6.60
2019-02-03T12:05:51.547Z,6.60
2019-02-03T12:06:55.983Z,6.50
2019-02-03T12:08:02.162Z,6.50
2019-02-03T12:09:09.064Z,6.50
2019-02-03T12:10:17.573Z,6.50
2019-02-03T12:11:21.984Z,6.40
2019-02-03T12:12:26.396Z,6.40
2019-02-03T12:13:30.874Z,6.40
2019-02-03T12:14:35.340Z,6.40
2019-02-03T12:15:39.939Z,6.30
2019-02-03T12:16:44.388Z,6.20
2019-02-03T12:17:49.181Z,6.20
2019-02-03T12:18:53.574Z,6.10
2019-02-03T12:19:58.037Z,6.00
2019-02-03T12:21:03.146Z,6.00
2019-02-03T12:22:07.895Z,6.00
2019-02-03T12:23:12.544Z,6.00
2019-02-03T12:24:16.963Z,6.10
2019-02-03T12:25:26.803Z,6.10
2019-02-03T12:26:31.286Z,6.20
2019-02-03T12:27:35.679Z,6.20
2019-02-03T12:28:40.076Z,6.20
2019-02-03T12:29:44.518Z,6.20
2019-02-03T12:30:49.119Z,6.20
2019-02-03T12:31:53.615Z,6.20
2019-02-03T12:32:58.335Z,6.20
2019-02-03T12:34:02.966Z,6.20
2019-02-03T12:35:09.497Z,6.20
2019-02-03T12:36:14.170Z,6.30
2019-02-03T12:37:18.744Z,6.30
2019-02-03T12:38:23.236Z,6.30
2019-02-03T12:39:27.902Z,6.30
2019-02-03T12:40:33.175Z,6.30
2019-02-03T12:41:37.518Z,6.40
2019-02-03T12:42:42.084Z,6.40
2019-02-03T12:43:46.810Z,6.40
2019-02-03T12:44:51.242Z,6.40
2019-02-03T12:45:55.684Z,6.50
2019-02-03T12:47:00.114Z,6.40
2019-02-03T12:48:06.067Z,6.50
2019-02-03T12:49:10.609Z,6.50
2019-02-03T12:50:16.459Z,6.50
2019-02-03T12:51:20.892Z,6.60
2019-02-03T12:52:25.348Z,6.60
2019-02-03T12:53:29.771Z,6.70
2019-02-03T12:54:34.205Z,6.80
2019-02-03T12:55:38.734Z,6.90
2019-02-03T12:56:43.380Z,6.90
2019-02-03T12:57:48.071Z,6.90
2019-02-03T12:58:52.672Z,7.00
2019-02-03T12:59:57.158Z,6.90
2019-02-03T13:01:01.794Z,6.90
2019-02-03T13:02:06.788Z,6.90
2019-02-03T13:03:11.355Z,6.90
2019-02-03T13:04:15.947Z,6.80
2019-02-03T13:05:21.678Z,6.90
2019-02-03T13:06:26.173Z,6.80
2019-02-03T13:07:30.870Z,6.70
2019-02-03T13:08:35.466Z,6.70
2019-02-03T13:09:39.963Z,6.60
2019-02-03T13:10:44.506Z,6.50
2019-02-03T13:11:49.074Z,6.40
2019-02-03T13:12:53.724Z,6.40
2019-02-03T13:13:58.274Z,6.40
2019-02-03T13:15:02.749Z,6.40
2019-02-03T13:16:07.364Z,6.40
2019-02-03T13:17:12.065Z,6.30
2019-02-03T13:18:16.556Z,6.40
2019-02-03T13:19:21.171Z,6.30
2019-02-03T13:20:26.876Z,6.30
2019-02-03T13:21:31.695Z,6.30
2019-02-03T13:22:36.524Z,6.30
2019-02-03T13:23:44.884Z,6.30
2019-02-03T13:24:47.835Z,6.30
2019-02-03T13:25:52.388Z,6.30
2019-02-03T13:26:56.947Z,6.30
2019-02-03T13:28:01.885Z,6.20
2019-02-03T13:29:25.509Z,6.10
2019-02-03T13:30:32.343Z,6.00
2019-02-03T13:31:36.925Z,6.10
2019-02-03T13:32:41.511Z,6.00
2019-02-03T13:33:48.683Z,6.00
2019-02-03T13:34:54.059Z,6.00
2019-02-03T13:35:58.605Z,6.00
2019-02-03T13:37:03.502Z,6.00
2019-02-03T13:38:08.729Z,6.00
2019-02-03T13:39:16.639Z,6.00
2019-02-03T13:40:24.086Z,5.90
2019-02-03T13:41:30.310Z,5.90
2019-02-03T13:42:37.299Z,5.80
2019-02-03T13:43:41.013Z,5.90
2019-02-03T13:44:45.633Z,5.70
2019-02-03T13:45:50.534Z,5.70
2019-02-03T13:46:55.111Z,5.70
2019-02-03T13:47:59.821Z,5.70
2019-02-03T13:49:04.423Z,5.70
2019-02-03T13:50:10.734Z,5.70
2019-02-03T13:51:15.225Z,5.60
2019-02-03T13:52:21.577Z,5.50
2019-02-03T13:53:26.184Z,5.50
2019-02-03T13:54:31.875Z,5.60
2019-02-03T13:55:36.763Z,5.60
2019-02-03T13:56:41.295Z,5.60
2019-02-03T13:57:45.766Z,5.60
2019-02-03T13:58:50.220Z,5.70
2019-02-03T13:59:54.797Z,5.60
2019-02-03T14:00:59.581Z,5.60
2019-02-03T14:02:07.989Z,5.60
2019-02-03T14:03:12.980Z,5.60
2019-02-03T14:04:17.760Z,5.70
2019-02-03T14:05:22.400Z,5.60
2019-02-03T14:06:27.122Z,5.70
2019-02-03T14:07:31.885Z,5.70
2019-02-03T14:08:36.592Z,5.70
2019-02-03T14:09:41.403Z,5.70
2019-02-03T14:10:46.514Z,5.70
2019-02-03T14:11:51.286Z,5.70
2019-02-03T14:12:57.538Z,5.60
2019-02-03T14:14:03.376Z,5.60
2019-02-03T14:15:09.200Z,5.50
2019-02-03T14:16:14.764Z,5.50
2019-02-03T14:17:19.436Z,5.50
2019-02-03T14:18:24.400Z,5.50
2019-02-03T14:19:29.012Z,5.60
2019-02-03T14:20:34.019Z,5.60
2019-02-03T14:21:38.800Z,5.50